createdAt,value
2018-06-15T00:00:27.848Z,18.27
2018-06-15T00:03:02.901Z,26.90
2018-06-15T00:05:32.142Z,18.77
2018-06-15T00:08:01.594Z,28.27
2018-06-15T00:10:30.764Z,21.33
2018-06-15T00:12:59.680Z,20.13
2018-06-15T00:15:28.628Z,26.17
2018-06-15T00:17:57.545Z,19.20
2018-06-15T00:20:26.509Z,20.70
2018-06-15T00:22:55.734Z,17.43
2018-06-15T00:25:24.944Z,22.30
2018-06-15T00:27:53.828Z,22.80
2018-06-15T00:30:22.806Z,24.03
2018-06-15T00:32:51.739Z,18.47
2018-06-15T00:35:20.768Z,19.47
2018-06-15T00:37:49.708Z,18.97
2018-06-15T00:40:18.911Z,22.43
2018-06-15T00:42:47.900Z,21.70
2018-06-15T00:45:16.785Z,23.20
2018-06-15T00:47:45.981Z,28.50
2018-06-15T00:50:15.003Z,20.10
2018-06-15T00:52:43.935Z,20.93
2018-06-15T00:55:12.934Z,31.50
2018-06-15T00:57:48.728Z,26.80
2018-06-15T01:00:18.316Z,23.70
2018-06-15T01:02:48.304Z,22.37
2018-06-15T01:05:17.272Z,20.80
2018-06-15T01:07:47.024Z,20.10
2018-06-15T01:10:15.979Z,22.03
2018-06-15T01:12:44.917Z,19.17
2018-06-15T01:15:13.858Z,24.27
2018-06-15T01:17:43.431Z,17.57
2018-06-15T01:20:12.316Z,23.80
2018-06-15T01:22:41.236Z,21.60
2018-06-15T01:25:10.625Z,26.17
2018-06-15T01:27:39.523Z,25.07
2018-06-15T01:30:09.133Z,21.40
2018-06-15T01:32:38.222Z,23.63
2018-06-15T01:35:07.111Z,24.60
2018-06-15T01:37:36.076Z,25.90
2018-06-15T01:40:05.049Z,31.10
2018-06-15T01:42:33.939Z,26.07
2018-06-15T01:45:02.930Z,27.30
2018-06-15T01:47:31.899Z,20.93
2018-06-15T01:50:00.965Z,26.03
2018-06-15T01:52:30.003Z,18.80
2018-06-15T01:54:58.977Z,27.43
2018-06-15T01:57:27.978Z,27.73
2018-06-15T01:59:57.381Z,26.17
2018-06-15T02:02:26.291Z,22.07
2018-06-15T02:04:55.675Z,31.23
2018-06-15T02:07:24.821Z,22.53
2018-06-15T02:09:53.761Z,27.50
2018-06-15T02:12:22.679Z,27.43
2018-06-15T02:14:51.609Z,30.03
2018-06-15T02:17:20.621Z,34.97
2018-06-15T02:19:50.274Z,30.20
2018-06-15T02:22:19.191Z,29.27
2018-06-15T02:24:48.165Z,31.70
2018-06-15T02:27:18.008Z,31.80
2018-06-15T02:29:46.889Z,26.90
2018-06-15T02:32:16.167Z,25.87
2018-06-15T02:34:45.076Z,29.53
2018-06-15T02:37:13.994Z,29.93
2018-06-15T02:39:43.267Z,29.83
2018-06-15T02:42:12.187Z,31.33
2018-06-15T02:44:41.095Z,33.10
2018-06-15T02:47:10.042Z,33.83
2018-06-15T02:49:38.971Z,32.30
2018-06-15T02:52:07.919Z,32.40
2018-06-15T02:54:37.134Z,34.73
2018-06-15T02:57:06.410Z,34.60
2018-06-15T02:59:35.323Z,33.33
2018-06-15T03:02:05.545Z,30.20
2018-06-15T03:04:34.454Z,31.50
2018-06-15T03:07:03.689Z,30.37
2018-06-15T03:09:32.637Z,35.67
2018-06-15T03:12:01.522Z,39.93
2018-06-15T03:14:30.417Z,29.20
2018-06-15T03:16:59.341Z,39.97
2018-06-15T03:19:28.508Z,32.53
2018-06-15T03:21:57.473Z,30.47
2018-06-15T03:24:26.385Z,38.73
2018-06-15T03:26:55.347Z,33.57
2018-06-15T03:29:24.237Z,34.33
2018-06-15T03:31:53.155Z,48.70
2018-06-15T03:34:22.043Z,31.10
2018-06-15T03:36:56.444Z,34.90
2018-06-15T03:39:30.941Z,30.90
2018-06-15T03:41:59.837Z,36.10
2018-06-15T03:44:28.821Z,33.43
2018-06-15T03:46:57.713Z,35.93
2018-06-15T03:49:26.617Z,37.33
2018-06-15T03:51:55.571Z,36.80
2018-06-15T03:54:24.481Z,34.00
2018-06-15T03:56:53.459Z,38.40
2018-06-15T03:59:22.417Z,34.53
2018-06-15T04:01:52.398Z,37.83
2018-06-15T04:04:21.373Z,39.67
2018-06-15T04:06:50.363Z,34.83
2018-06-15T04:09:19.436Z,42.73
2018-06-15T04:11:48.995Z,45.97
2018-06-15T04:14:17.941Z,40.17
2018-06-15T04:16:46.864Z,37.93
2018-06-15T04:19:20.256Z,40.43
2018-06-15T04:21:54.729Z,38.30
2018-06-15T04:24:29.171Z,35.40
2018-06-15T04:26:58.987Z,43.10
2018-06-15T04:29:27.955Z,35.73
2018-06-15T04:31:56.936Z,34.47
2018-06-15T04:34:26.154Z,41.03
2018-06-15T04:36:55.058Z,39.33
2018-06-15T04:39:23.959Z,39.10
2018-06-15T04:41:52.851Z,34.50
2018-06-15T04:44:21.746Z,41.27
2018-06-15T04:46:50.686Z,44.13
2018-06-15T04:49:19.617Z,35.83
2018-06-15T04:51:48.541Z,46.77
2018-06-15T04:54:17.472Z,38.80
2018-06-15T04:56:46.616Z,40.90
2018-06-15T04:59:15.544Z,38.87
2018-06-15T05:01:44.551Z,40.63
2018-06-15T05:04:13.623Z,41.87
2018-06-15T05:06:43.140Z,40.13
2018-06-15T05:09:12.071Z,45.27
2018-06-15T05:11:41.312Z,45.30
2018-06-15T05:14:10.227Z,47.80
2018-06-15T05:16:40.184Z,39.77
2018-06-15T05:19:15.522Z,40.07
2018-06-15T05:21:45.078Z,39.50
2018-06-15T05:24:14.008Z,44.40
2018-06-15T05:26:42.933Z,36.27
2018-06-15T05:29:11.831Z,43.93
2018-06-15T05:31:46.445Z,42.77
2018-06-15T05:34:20.808Z,40.60
2018-06-15T05:36:49.734Z,38.33
2018-06-15T05:39:18.748Z,45.37
2018-06-15T05:41:47.680Z,38.93
2018-06-15T05:57:16.704Z,37.17
2018-06-15T05:59:45.757Z,34.87
2018-06-15T06:02:14.797Z,39.20
2018-06-15T06:04:43.746Z,41.80
2018-06-15T06:07:12.682Z,44.17
2018-06-15T06:09:41.583Z,34.80
2018-06-15T06:12:10.606Z,37.30
2018-06-15T06:14:40.528Z,35.47
2018-06-15T06:17:09.532Z,35.03
2018-06-15T06:19:38.504Z,36.97
2018-06-15T06:22:07.425Z,36.93
2018-06-15T06:24:37.264Z,39.83
2018-06-15T06:27:06.436Z,34.13
2018-06-15T06:29:36.278Z,44.43
2018-06-15T06:32:05.310Z,41.10
2018-06-15T06:34:35.076Z,36.93
2018-06-15T06:37:04.054Z,35.80
2018-06-15T06:39:33.181Z,36.37
2018-06-15T06:55:02.106Z,30.93
2018-06-15T06:57:31.124Z,34.60
2018-06-15T07:00:00.109Z,32.13
2018-06-15T07:02:29.818Z,31.13
2018-06-15T07:04:58.867Z,31.20
2018-06-15T07:07:28.160Z,30.03
2018-06-15T07:09:57.130Z,30.27
2018-06-15T07:12:26.245Z,35.53
2018-06-15T07:14:57.128Z,26.47
2018-06-15T07:17:26.697Z,24.27
2018-06-15T07:19:55.644Z,24.97
2018-06-15T07:22:24.545Z,26.13
2018-06-15T07:24:53.487Z,31.27
2018-06-15T07:27:22.381Z,28.63
2018-06-15T07:29:51.384Z,28.10
2018-06-15T07:32:20.285Z,34.27
2018-06-15T07:34:49.203Z,25.97
2018-06-15T07:37:18.237Z,31.80
2018-06-15T07:39:47.208Z,28.97
2018-06-15T07:42:16.138Z,29.93
2018-06-15T07:44:45.091Z,28.23
2018-06-15T07:47:14.003Z,25.77
2018-06-15T07:49:42.884Z,28.57
2018-06-15T07:52:11.803Z,31.10
2018-06-15T07:54:41.260Z,24.63
2018-06-15T07:57:10.312Z,29.77
2018-06-15T07:59:39.298Z,24.40
2018-06-15T08:02:08.202Z,26.87
2018-06-15T08:04:37.128Z,26.40
2018-06-15T08:07:06.384Z,22.50
2018-06-15T08:09:35.319Z,28.63
2018-06-15T08:12:04.220Z,30.23
2018-06-15T08:14:33.153Z,30.07
2018-06-15T08:17:02.105Z,26.80
2018-06-15T08:19:31.032Z,30.20
2018-06-15T08:22:00.803Z,27.97
2018-06-15T08:24:29.780Z,24.90
2018-06-15T08:26:58.668Z,29.47
2018-06-15T08:29:27.592Z,26.50
2018-06-15T08:31:56.490Z,25.63
2018-06-15T08:34:25.428Z,27.77
2018-06-15T08:36:55.052Z,24.13
2018-06-15T08:39:23.953Z,29.60
2018-06-15T08:41:53.572Z,25.80
2018-06-15T08:44:22.754Z,24.23
2018-06-15T08:46:52.148Z,24.63
2018-06-15T08:49:21.366Z,22.00
2018-06-15T08:51:50.328Z,27.00
2018-06-15T08:54:19.292Z,31.67
2018-06-15T08:56:48.223Z,22.97
2018-06-15T09:12:17.152Z,20.87
2018-06-15T09:14:46.556Z,23.37
2018-06-15T09:17:16.068Z,23.30
2018-06-15T09:19:44.966Z,22.00
2018-06-15T09:22:13.900Z,17.97
2018-06-15T09:24:42.856Z,22.37
2018-06-15T09:27:11.767Z,20.10
2018-06-15T09:29:40.737Z,18.53
2018-06-15T09:32:09.652Z,23.97
2018-06-15T09:34:38.672Z,20.53
2018-06-15T09:37:07.655Z,19.53
2018-06-15T09:39:36.616Z,17.33
2018-06-15T09:42:05.781Z,19.77
2018-06-15T09:44:34.715Z,17.20
2018-06-15T09:47:04.578Z,16.97
2018-06-15T09:49:34.036Z,17.07
2018-06-15T09:52:02.925Z,14.07
2018-06-15T09:54:32.964Z,21.23
2018-06-15T09:57:02.081Z,17.93
2018-06-15T09:59:31.006Z,19.17
2018-06-15T10:01:59.932Z,15.73
2018-06-15T10:04:29.128Z,20.43
2018-06-15T10:06:58.352Z,18.37
2018-06-15T10:09:27.253Z,17.37
2018-06-15T10:11:56.849Z,20.57
2018-06-15T10:14:25.764Z,20.07
2018-06-15T10:16:54.644Z,22.73
2018-06-15T10:19:23.604Z,21.30
2018-06-15T10:21:52.914Z,26.03
2018-06-15T10:24:22.133Z,27.17
2018-06-15T10:26:51.113Z,22.10
2018-06-15T10:29:19.992Z,21.27
2018-06-15T10:31:55.507Z,21.10
2018-06-15T10:34:24.421Z,19.40
2018-06-15T10:36:53.343Z,20.53
2018-06-15T10:39:22.308Z,25.03
2018-06-15T10:41:51.161Z,21.73
2018-06-15T10:44:20.117Z,20.40
2018-06-15T10:46:49.045Z,21.03
2018-06-15T10:49:18.041Z,21.27
2018-06-15T10:51:46.963Z,28.10
2018-06-15T10:54:15.899Z,22.40
2018-06-15T10:56:44.821Z,27.07
2018-06-15T10:59:13.807Z,22.93
2018-06-15T11:01:42.723Z,23.07
2018-06-15T11:04:11.649Z,19.97
2018-06-15T11:06:40.656Z,22.57
2018-06-15T11:09:09.580Z,16.97
2018-06-15T11:11:38.551Z,18.73
2018-06-15T11:14:07.460Z,16.50
2018-06-15T11:16:36.389Z,16.83
2018-06-15T11:19:05.445Z,20.47
2018-06-15T11:21:34.385Z,18.13
2018-06-15T11:24:03.921Z,16.17
2018-06-15T11:26:33.875Z,19.03
2018-06-15T11:29:02.785Z,20.40
2018-06-15T11:31:32.045Z,16.97
2018-06-15T11:34:01.011Z,14.33
2018-06-15T11:36:30.047Z,22.87
2018-06-15T11:39:05.741Z,15.83
2018-06-15T11:41:34.701Z,17.13
2018-06-15T11:44:04.039Z,18.97
2018-06-15T11:46:33.369Z,16.57
2018-06-15T11:49:02.380Z,16.83
2018-06-15T11:51:31.313Z,13.93
2018-06-15T11:54:00.257Z,14.63
2018-06-15T11:56:29.249Z,16.20
2018-06-15T11:58:58.201Z,18.73
2018-06-15T12:01:27.415Z,15.07
2018-06-15T12:03:56.317Z,14.00
2018-06-15T12:06:25.333Z,14.83
2018-06-15T12:08:54.273Z,14.93
2018-06-15T12:11:23.192Z,13.07
2018-06-15T12:13:52.162Z,13.57
2018-06-15T12:16:21.149Z,17.87
2018-06-15T12:18:50.387Z,14.60
2018-06-15T12:21:20.149Z,12.83
2018-06-15T12:23:49.060Z,14.33
2018-06-15T12:26:18.000Z,9.87
2018-06-15T12:28:46.922Z,17.77
2018-06-15T12:31:15.855Z,10.27
2018-06-15T12:33:45.012Z,12.73
2018-06-15T12:36:13.927Z,11.73
2018-06-15T12:38:43.177Z,10.63
2018-06-15T12:41:12.587Z,11.50
2018-06-15T12:43:41.901Z,9.27
2018-06-15T12:46:10.836Z,13.07
2018-06-15T12:48:39.744Z,8.70
2018-06-15T12:51:08.658Z,10.67
2018-06-15T12:53:37.667Z,8.77
2018-06-15T12:56:06.570Z,5.37
2018-06-15T12:58:35.493Z,9.30
2018-06-15T13:01:04.417Z,9.07
2018-06-15T13:03:33.344Z,11.47
2018-06-15T13:06:02.287Z,10.57
2018-06-15T13:08:31.196Z,8.53
2018-06-15T13:11:00.378Z,8.97
2018-06-15T13:13:29.306Z,6.23
2018-06-15T13:15:58.254Z,8.03
2018-06-15T13:18:27.213Z,8.40
2018-06-15T13:20:56.163Z,10.13
2018-06-15T13:23:25.319Z,7.77
2018-06-15T13:25:54.242Z,6.20
2018-06-15T13:28:23.168Z,7.70
2018-06-15T13:30:52.157Z,7.63
2018-06-15T13:33:21.121Z,8.57
2018-06-15T13:35:50.057Z,8.47
2018-06-15T13:38:18.997Z,14.70
2018-06-15T13:40:47.954Z,11.93
2018-06-15T13:43:16.873Z,6.20
2018-06-15T13:45:45.821Z,6.43
2018-06-15T13:48:15.108Z,8.37
2018-06-15T13:50:44.031Z,9.50
2018-06-15T13:53:12.949Z,8.87
2018-06-15T13:55:41.909Z,6.57
2018-06-15T13:58:11.122Z,5.43
2018-06-15T14:00:40.101Z,7.50
2018-06-15T14:03:09.005Z,7.87
2018-06-15T14:05:37.979Z,10.03
2018-06-15T14:08:07.013Z,10.67
2018-06-15T14:10:36.223Z,10.27
2018-06-15T14:13:05.235Z,6.53
2018-06-15T14:15:34.241Z,8.53
2018-06-15T14:18:03.155Z,10.17
2018-06-15T14:20:32.605Z,8.03
2018-06-15T14:23:02.179Z,7.47
2018-06-15T14:25:31.091Z,9.63
2018-06-15T14:28:00.014Z,21.93
2018-06-15T14:30:28.939Z,27.97
2018-06-15T14:32:57.887Z,26.67
2018-06-15T14:35:27.087Z,25.20
2018-06-15T14:37:55.999Z,30.40
2018-06-15T14:40:24.931Z,33.07
2018-06-15T14:42:53.879Z,24.50
2018-06-15T14:45:23.085Z,25.50
2018-06-15T14:47:52.015Z,22.90
2018-06-15T14:50:21.002Z,20.13
2018-06-15T14:52:49.890Z,20.80
2018-06-15T14:55:18.942Z,20.43
2018-06-15T14:57:48.549Z,25.13
2018-06-15T15:00:17.473Z,24.20
2018-06-15T15:02:46.641Z,17.97
2018-06-15T15:05:15.632Z,19.13
2018-06-15T15:07:44.557Z,22.83
2018-06-15T15:10:13.486Z,20.83
2018-06-15T15:12:42.443Z,19.90
2018-06-15T15:15:11.340Z,26.27
2018-06-15T15:17:40.259Z,23.17
2018-06-15T15:20:09.191Z,26.83
2018-06-15T15:22:38.376Z,23.20
2018-06-15T15:25:07.315Z,18.53
2018-06-15T15:27:36.233Z,19.63
2018-06-15T15:30:05.208Z,22.83
2018-06-15T15:32:34.096Z,21.00
2018-06-15T15:35:03.024Z,21.47
2018-06-15T15:37:32.003Z,19.10
2018-06-15T15:40:00.916Z,22.17
2018-06-15T15:42:29.823Z,27.33
2018-06-15T15:44:58.813Z,25.37
2018-06-15T15:47:27.721Z,20.37
2018-06-15T15:49:56.671Z,18.53
2018-06-15T15:52:25.595Z,19.37
2018-06-15T15:54:54.582Z,19.17
2018-06-15T15:57:23.841Z,20.97
2018-06-15T15:59:52.885Z,18.23
2018-06-15T16:02:21.892Z,19.40
2018-06-15T16:04:50.834Z,20.53
2018-06-15T16:07:20.020Z,18.03
2018-06-15T16:09:48.912Z,18.23
2018-06-15T16:12:17.817Z,20.27
2018-06-15T16:14:46.756Z,19.63
2018-06-15T16:17:16.282Z,19.97
2018-06-15T16:19:45.196Z,18.07
2018-06-15T16:22:14.466Z,17.03
2018-06-15T16:24:43.392Z,18.87
2018-06-15T16:27:12.460Z,16.93
2018-06-15T16:29:41.427Z,19.53
2018-06-15T16:32:10.819Z,16.60
2018-06-15T16:34:39.742Z,21.80
2018-06-15T16:37:08.794Z,16.67
2018-06-15T16:39:37.745Z,19.60
2018-06-15T16:42:06.690Z,15.63
2018-06-15T16:44:35.672Z,15.33
2018-06-15T16:47:04.666Z,20.20
2018-06-15T16:49:33.585Z,16.47
2018-06-15T16:52:02.844Z,17.83
2018-06-15T16:54:32.327Z,18.67
2018-06-15T16:57:01.268Z,16.33
2018-06-15T16:59:30.194Z,19.43
2018-06-15T17:01:59.214Z,16.93
2018-06-15T17:04:28.042Z,21.30
2018-06-15T17:06:56.989Z,16.50
2018-06-15T17:09:25.924Z,22.30
2018-06-15T17:11:54.824Z,19.50
2018-06-15T17:14:24.068Z,18.80
2018-06-15T17:16:53.022Z,19.43
2018-06-15T17:19:21.979Z,24.03
2018-06-15T17:21:50.884Z,21.30
2018-06-15T17:24:20.882Z,20.10
2018-06-15T17:26:49.797Z,18.53
2018-06-15T17:29:19.316Z,23.43
2018-06-15T17:31:48.233Z,27.30
2018-06-15T17:34:17.999Z,22.63
2018-06-15T17:36:46.992Z,23.00
2018-06-15T17:39:15.883Z,24.67
2018-06-15T17:41:45.607Z,21.77
2018-06-15T17:44:14.519Z,16.37
2018-06-15T17:46:43.784Z,21.60
2018-06-15T17:49:12.770Z,19.77
2018-06-15T17:51:41.673Z,20.47
2018-06-15T17:54:10.784Z,20.77
2018-06-15T17:56:39.728Z,12.93
2018-06-15T17:59:08.641Z,17.67
2018-06-15T18:01:37.869Z,14.23
2018-06-15T18:04:07.077Z,11.23
2018-06-15T18:19:36.044Z,18.10
2018-06-15T18:22:04.969Z,16.17
2018-06-15T18:24:33.938Z,11.47
2018-06-15T18:27:02.858Z,12.70
2018-06-15T18:29:31.758Z,9.00
2018-06-15T18:32:00.700Z,11.93
2018-06-15T18:34:29.642Z,13.07
2018-06-15T18:36:58.553Z,9.47
2018-06-15T18:39:27.483Z,10.57
2018-06-15T18:41:56.436Z,14.07
2018-06-15T18:44:25.364Z,19.80
2018-06-15T18:46:54.331Z,16.07
2018-06-15T18:49:23.297Z,18.00
2018-06-15T18:51:52.252Z,17.77
2018-06-15T18:54:21.208Z,16.23
2018-06-15T18:56:50.072Z,17.90
2018-06-15T18:59:20.010Z,18.67
2018-06-15T19:01:48.908Z,17.47
2018-06-15T19:04:17.848Z,16.10
2018-06-15T19:06:46.744Z,20.70
2018-06-15T19:09:16.466Z,21.40
2018-06-15T19:11:45.509Z,17.87
2018-06-15T19:14:14.401Z,23.07
2018-06-15T19:16:43.307Z,25.27
2018-06-15T19:19:12.209Z,20.33
2018-06-15T19:21:41.235Z,21.80
2018-06-15T19:24:10.616Z,24.57
2018-06-15T19:26:39.571Z,20.87
2018-06-15T19:29:08.561Z,23.73
2018-06-15T19:31:37.374Z,26.43
2018-06-15T19:34:06.297Z,22.07
2018-06-15T19:36:35.226Z,26.07
2018-06-15T19:39:06.044Z,24.90
2018-06-15T19:41:39.978Z,21.97
2018-06-15T19:44:08.968Z,23.10
2018-06-15T19:46:37.915Z,29.87
2018-06-15T19:49:06.907Z,26.30
2018-06-15T19:51:36.992Z,29.23
2018-06-15T19:54:06.988Z,25.67
2018-06-15T19:56:35.897Z,25.13
2018-06-15T19:59:05.159Z,26.70
2018-06-15T20:01:34.048Z,24.93
2018-06-15T20:04:03.800Z,30.20
2018-06-15T20:06:33.167Z,28.33
2018-06-15T20:09:02.369Z,22.93
2018-06-15T20:11:31.284Z,29.53
2018-06-15T20:14:00.192Z,23.60
2018-06-15T20:16:29.109Z,23.30
2018-06-15T20:18:57.981Z,23.47
2018-06-15T20:21:27.766Z,23.93
2018-06-15T20:24:02.426Z,22.07
2018-06-15T20:26:31.324Z,25.53
2018-06-15T20:29:00.250Z,30.10
2018-06-15T20:31:29.486Z,22.77
2018-06-15T20:33:58.420Z,20.03
2018-06-15T20:36:27.316Z,24.40
2018-06-15T20:38:56.252Z,20.17
2018-06-15T20:41:25.183Z,23.20
2018-06-15T20:43:54.391Z,22.43
2018-06-15T20:46:23.298Z,21.57
2018-06-15T20:48:52.178Z,24.83
2018-06-15T20:51:21.085Z,21.20
2018-06-15T20:53:50.291Z,25.10
2018-06-15T20:56:19.208Z,24.13
2018-06-15T20:58:48.172Z,22.13
2018-06-15T21:01:17.085Z,20.03
2018-06-15T21:03:46.010Z,24.40
2018-06-15T21:06:15.150Z,23.97
2018-06-15T21:08:44.054Z,20.53
2018-06-15T21:11:12.954Z,25.43
2018-06-15T21:13:41.836Z,25.30
2018-06-15T21:16:10.765Z,24.17
2018-06-15T21:18:39.632Z,23.23
2018-06-15T21:34:08.569Z,32.93
2018-06-15T21:36:43.903Z,27.17
2018-06-15T21:39:12.817Z,27.20
2018-06-15T21:41:41.736Z,31.20
2018-06-15T21:44:10.648Z,25.77
2018-06-15T21:46:39.888Z,29.33
2018-06-15T21:49:08.931Z,28.90
2018-06-15T21:51:37.832Z,27.00
2018-06-15T21:54:07.382Z,28.67
2018-06-15T21:56:36.575Z,32.90
2018-06-15T21:59:05.458Z,33.23
2018-06-15T22:01:34.334Z,27.20
2018-06-15T22:04:03.429Z,30.73
2018-06-15T22:06:32.318Z,29.37
2018-06-15T22:09:01.231Z,32.67
2018-06-15T22:11:30.439Z,28.63
2018-06-15T22:14:00.250Z,25.00
2018-06-15T22:16:33.328Z,32.90
2018-06-15T22:19:02.364Z,27.60
2018-06-15T22:21:31.547Z,22.97
2018-06-15T22:24:00.452Z,20.37
2018-06-15T22:26:29.334Z,23.93
2018-06-15T22:28:58.336Z,23.17
2018-06-15T22:31:27.356Z,20.60
2018-06-15T22:33:56.320Z,24.57
2018-06-15T22:36:25.236Z,25.43
2018-06-15T22:38:54.126Z,22.07
2018-06-15T22:41:23.040Z,25.50
2018-06-15T22:43:51.956Z,17.60
2018-06-15T22:46:20.804Z,24.40
2018-06-15T22:48:49.682Z,17.67
2018-06-15T22:51:18.582Z,14.87
2018-06-15T22:53:47.483Z,15.10
2018-06-15T22:56:16.378Z,13.27
2018-06-15T22:58:45.252Z,22.37
2018-06-15T23:01:14.372Z,13.63
2018-06-15T23:03:43.480Z,17.77
2018-06-15T23:06:12.364Z,13.33
2018-06-15T23:08:42.372Z,15.53
2018-06-15T23:11:11.364Z,18.30
2018-06-15T23:13:40.246Z,14.43
2018-06-15T23:16:09.161Z,18.67
2018-06-15T23:18:38.056Z,15.30
2018-06-15T23:34:07.122Z,15.40
2018-06-15T23:36:36.064Z,19.10
2018-06-15T23:39:07.116Z,17.93
2018-06-15T23:41:36.089Z,18.33
2018-06-15T23:44:05.133Z,18.50
2018-06-15T23:46:34.032Z,19.07
2018-06-15T23:49:02.928Z,20.20
2018-06-15T23:51:31.810Z,23.23
2018-06-15T23:54:00.827Z,20.60
2018-06-15T23:56:29.735Z,23.07
2018-06-15T23:58:58.620Z,22.70
